Nelson, New Hampshire
Current Conditions -  °F | °C
As of 10:15 AM on Thursday 30 Oct 2014 (Local Time) from KEEN Reporting Station
Overcast Overcast  
Wind Chill: 39°   Ceiling: 7000
Heat Index: 39°   Visibility: 10mi
Dew Point: 34°   Wind: 0mph
Humidity: 81%   Direction: NA
Pressure: 29.96"   Gusts: NA
Location:  42.9982°N, 72.1464°W
Report Text: KEEN 301415Z AUTO 00000KT 10SM OVC070 04/01 A2996 RMK AO1
Loading
Personal Weather Stations






























Interactive Weather Map
Tropical Storm Tracking
New forecast layout! Learn more

10-Day Weather Forecast

Advertisements
Track Severe Weather on mobile